createdAt,value
2023-03-13T00:01:13.366Z,11.77
2023-03-13T00:03:41.540Z,10.60
2023-03-13T00:06:10.121Z,11.33
2023-03-13T00:08:38.557Z,9.90
2023-03-13T00:11:07.856Z,11.20
2023-03-13T00:13:36.222Z,10.83
2023-03-13T00:16:07.906Z,11.53
2023-03-13T00:18:36.470Z,11.53
2023-03-13T00:21:06.682Z,11.30
2023-03-13T00:23:36.227Z,9.77
2023-03-13T00:26:06.722Z,10.50
2023-03-13T00:28:36.133Z,10.33
2023-03-13T00:31:05.413Z,9.37
2023-03-13T00:33:35.402Z,10.37
2023-03-13T00:36:05.568Z,8.83
2023-03-13T00:38:34.310Z,8.53
2023-03-13T00:41:03.772Z,9.03
2023-03-13T00:43:32.050Z,7.00
2023-03-13T00:46:00.416Z,7.73
2023-03-13T00:48:28.984Z,7.33
2023-03-13T00:50:58.783Z,7.17
2023-03-13T00:53:27.099Z,7.30
2023-03-13T00:55:57.615Z,7.50
2023-03-13T00:58:26.946Z,7.33
2023-03-13T01:00:55.644Z,8.03
2023-03-13T01:03:26.138Z,7.23
2023-03-13T01:05:59.828Z,6.97
2023-03-13T01:08:29.047Z,7.97
2023-03-13T01:11:01.033Z,7.27
2023-03-13T01:13:29.937Z,7.87
2023-03-13T01:15:58.131Z,7.47
2023-03-13T01:18:26.343Z,7.23
2023-03-13T01:20:54.801Z,8.23
2023-03-13T01:23:24.533Z,6.70
2023-03-13T01:25:52.719Z,8.03
2023-03-13T01:28:20.911Z,6.90
2023-03-13T01:30:49.156Z,7.37
2023-03-13T01:33:17.419Z,7.10
2023-03-13T01:35:45.798Z,7.90
2023-03-13T01:38:14.014Z,7.60
2023-03-13T01:40:46.258Z,7.10
2023-03-13T01:43:26.379Z,7.50
2023-03-13T01:46:02.620Z,7.07
2023-03-13T01:48:36.962Z,7.33
2023-03-13T01:51:09.198Z,6.77
2023-03-13T01:53:39.449Z,6.10
2023-03-13T01:56:14.644Z,6.57
2023-03-13T01:58:43.738Z,6.50
2023-03-13T02:01:13.138Z,7.13
2023-03-13T02:03:41.323Z,6.93
2023-03-13T02:06:11.183Z,6.43
2023-03-13T02:08:43.483Z,6.43
2023-03-13T02:11:21.685Z,6.43
2023-03-13T02:13:51.595Z,6.20
2023-03-13T02:16:21.268Z,6.60
2023-03-13T02:18:49.946Z,6.83
2023-03-13T02:21:26.707Z,5.93
2023-03-13T02:24:00.069Z,6.60
2023-03-13T02:26:29.663Z,6.13
2023-03-13T02:28:57.882Z,6.43
2023-03-13T02:31:27.290Z,6.27
2023-03-13T02:33:57.054Z,6.57
2023-03-13T02:36:25.254Z,6.53
2023-03-13T02:38:57.414Z,6.87
2023-03-13T02:41:26.817Z,6.17
2023-03-13T02:43:56.335Z,6.33
2023-03-13T02:46:24.719Z,7.00
2023-03-13T02:48:55.566Z,5.70
2023-03-13T02:51:27.699Z,7.23
2023-03-13T02:53:59.835Z,6.87
2023-03-13T02:56:29.024Z,7.17
2023-03-13T02:58:58.614Z,7.27
2023-03-13T03:01:26.865Z,6.33
2023-03-13T03:03:55.131Z,6.93
2023-03-13T03:06:23.336Z,7.23
2023-03-13T03:08:51.743Z,6.90
2023-03-13T03:11:19.968Z,6.63
2023-03-13T03:13:48.202Z,7.13
2023-03-13T03:16:18.810Z,8.07
2023-03-13T03:18:47.375Z,6.77
2023-03-13T03:21:15.654Z,7.20
2023-03-13T03:23:43.809Z,7.60
2023-03-13T03:26:12.088Z,7.43
2023-03-13T03:28:40.210Z,7.07
2023-03-13T03:31:09.234Z,8.30
2023-03-13T03:33:39.613Z,7.90
2023-03-13T03:36:10.977Z,7.57
2023-03-13T03:38:39.847Z,8.00
2023-03-13T03:41:08.338Z,7.87
2023-03-13T03:43:36.764Z,7.87
2023-03-13T03:46:05.439Z,8.13
2023-03-13T03:48:33.977Z,8.77
2023-03-13T03:51:03.484Z,8.10
2023-03-13T03:53:32.480Z,9.30
2023-03-13T03:56:01.108Z,7.50
2023-03-13T03:58:29.461Z,6.47
2023-03-13T04:00:59.113Z,8.70
2023-03-13T04:03:27.467Z,7.37
2023-03-13T04:05:55.757Z,7.70
2023-03-13T04:08:25.778Z,8.97
2023-03-13T04:10:54.004Z,7.40
2023-03-13T04:13:22.232Z,8.93
2023-03-13T04:15:50.321Z,8.37
2023-03-13T04:18:18.462Z,8.47
2023-03-13T04:20:47.036Z,8.67
2023-03-13T04:23:15.662Z,7.87
2023-03-13T04:25:45.209Z,8.93
2023-03-13T04:28:13.369Z,8.47
2023-03-13T04:30:42.275Z,9.00
2023-03-13T04:33:10.509Z,9.47
2023-03-13T04:35:38.691Z,9.03
2023-03-13T04:38:06.861Z,9.57
2023-03-13T04:40:35.032Z,8.37
2023-03-13T04:43:04.559Z,10.17
2023-03-13T04:45:32.789Z,10.13
2023-03-13T04:48:00.912Z,10.10
2023-03-13T04:50:29.038Z,10.50
2023-03-13T04:52:57.151Z,10.43
2023-03-13T04:55:25.334Z,10.87
2023-03-13T04:57:53.474Z,9.67
2023-03-13T05:00:23.403Z,10.33
2023-03-13T05:02:51.549Z,10.40
2023-03-13T05:05:19.719Z,12.03
2023-03-13T05:07:47.953Z,11.53
2023-03-13T05:10:16.125Z,11.73
2023-03-13T05:12:44.253Z,10.70
2023-03-13T05:15:13.051Z,12.60
2023-03-13T05:17:42.648Z,12.70
2023-03-13T05:20:12.438Z,12.07
2023-03-13T05:22:40.601Z,11.60
2023-03-13T05:25:09.350Z,14.00
2023-03-13T05:27:37.517Z,11.67
2023-03-13T05:30:06.766Z,14.13
2023-03-13T05:32:34.979Z,15.20
2023-03-13T05:35:04.649Z,13.00
2023-03-13T05:37:32.756Z,12.80
2023-03-13T05:40:01.056Z,12.83
2023-03-13T05:42:29.199Z,13.00
2023-03-13T05:44:57.385Z,11.47
2023-03-13T05:47:25.633Z,12.73
2023-03-13T05:49:53.766Z,13.83
2023-03-13T05:52:23.420Z,14.40
2023-03-13T05:54:51.542Z,14.07
2023-03-13T05:57:19.647Z,13.80
2023-03-13T05:59:47.786Z,14.13
2023-03-13T06:02:15.984Z,14.23
2023-03-13T06:04:44.412Z,14.83
2023-03-13T06:07:12.651Z,13.97
2023-03-13T06:09:42.203Z,14.10
2023-03-13T06:12:11.135Z,13.63
2023-03-13T06:14:39.386Z,13.97
2023-03-13T06:17:08.588Z,13.27
2023-03-13T06:19:36.741Z,14.40
2023-03-13T06:22:04.970Z,14.03
2023-03-13T06:24:33.394Z,14.93
2023-03-13T06:27:02.973Z,14.70
2023-03-13T06:29:31.104Z,14.90
2023-03-13T06:31:59.346Z,15.47
2023-03-13T06:34:27.616Z,13.43
2023-03-13T06:36:58.512Z,14.40
2023-03-13T06:39:26.749Z,14.87
2023-03-13T06:41:54.866Z,14.73
2023-03-13T06:44:24.393Z,16.17
2023-03-13T06:46:52.560Z,15.90
2023-03-13T06:49:20.807Z,13.63
2023-03-13T06:51:49.016Z,16.20
2023-03-13T06:54:17.124Z,16.10
2023-03-13T06:56:45.298Z,16.10
2023-03-13T06:59:13.445Z,15.43
2023-03-13T07:01:43.056Z,16.10
2023-03-13T07:04:14.737Z,15.80
2023-03-13T07:06:42.930Z,16.47
2023-03-13T07:09:11.734Z,16.13
2023-03-13T07:11:39.908Z,15.77
2023-03-13T07:14:16.593Z,15.30
2023-03-13T07:16:47.568Z,14.77
2023-03-13T07:19:16.256Z,15.20
2023-03-13T07:21:45.184Z,14.07
2023-03-13T07:24:13.728Z,13.97
2023-03-13T07:26:48.691Z,14.93
2023-03-13T07:29:26.284Z,13.97
2023-03-13T07:31:55.847Z,13.50
2023-03-13T07:34:24.017Z,14.50
2023-03-13T07:36:52.151Z,13.30
2023-03-13T07:39:20.282Z,13.93
2023-03-13T07:41:48.389Z,14.10
2023-03-13T07:44:16.472Z,13.47
2023-03-13T07:46:44.673Z,14.03
2023-03-13T07:49:14.189Z,13.53
2023-03-13T07:51:43.872Z,13.47
2023-03-13T07:54:12.800Z,13.23
2023-03-13T07:56:41.305Z,14.97
2023-03-13T07:59:09.798Z,13.20
2023-03-13T08:01:38.093Z,13.90
2023-03-13T08:04:06.694Z,14.23
2023-03-13T08:06:36.829Z,13.00
2023-03-13T08:09:05.640Z,13.03
2023-03-13T08:11:34.011Z,13.53
2023-03-13T08:14:02.151Z,13.80
2023-03-13T08:16:32.335Z,13.03
2023-03-13T08:19:01.096Z,11.90
2023-03-13T08:21:30.546Z,12.27
2023-03-13T08:24:02.553Z,11.47
2023-03-13T08:26:31.952Z,10.87
2023-03-13T08:29:01.880Z,9.57
2023-03-13T08:31:31.611Z,11.80
2023-03-13T08:34:02.572Z,10.63
2023-03-13T08:36:32.908Z,11.23
2023-03-13T08:39:04.868Z,11.27
2023-03-13T08:41:36.230Z,11.33
2023-03-13T08:44:05.656Z,11.33
2023-03-13T08:46:37.505Z,10.60
2023-03-13T08:49:07.769Z,10.73
2023-03-13T08:51:36.648Z,11.80
2023-03-13T08:54:06.906Z,11.10
2023-03-13T08:56:35.309Z,11.53
2023-03-13T08:59:05.535Z,9.47
2023-03-13T09:01:36.521Z,10.33
2023-03-13T09:04:06.452Z,9.77
2023-03-13T09:06:35.161Z,9.47
2023-03-13T09:09:05.721Z,9.57
2023-03-13T09:11:34.397Z,9.80
2023-03-13T09:14:03.753Z,9.67
2023-03-13T09:16:33.788Z,9.23
2023-03-13T09:19:02.567Z,10.30
2023-03-13T09:21:32.476Z,8.80
2023-03-13T09:24:00.996Z,8.67
2023-03-13T09:26:30.689Z,9.10
2023-03-13T09:29:00.083Z,9.13
2023-03-13T09:31:30.235Z,8.37
2023-03-13T09:33:58.977Z,8.53
2023-03-13T09:36:28.269Z,8.50
2023-03-13T09:38:58.194Z,8.77
2023-03-13T09:41:33.375Z,7.97
2023-03-13T09:44:06.842Z,8.07
2023-03-13T09:46:40.577Z,7.97
2023-03-13T09:49:18.338Z,8.03
2023-03-13T09:51:51.970Z,8.50
2023-03-13T09:54:26.884Z,8.00
2023-03-13T09:56:59.993Z,7.93
2023-03-13T09:59:34.891Z,7.47
2023-03-13T10:02:11.401Z,8.20
2023-03-13T10:04:44.964Z,6.90
2023-03-13T10:07:13.656Z,7.73
2023-03-13T10:09:42.458Z,7.20
2023-03-13T10:12:20.706Z,7.40
2023-03-13T10:15:13.622Z,7.27
2023-03-13T10:17:42.284Z,6.90
2023-03-13T10:20:18.867Z,7.20
2023-03-13T10:22:49.358Z,6.90
2023-03-13T10:25:28.258Z,7.03
2023-03-13T10:27:58.102Z,6.33
2023-03-13T10:30:28.848Z,6.57
2023-03-13T10:33:01.304Z,6.63
2023-03-13T10:35:41.913Z,6.77
2023-03-13T10:38:13.167Z,6.77
2023-03-13T10:40:42.800Z,7.27
2023-03-13T10:43:22.309Z,6.97
2023-03-13T10:45:50.653Z,6.53
2023-03-13T10:48:22.161Z,6.37
2023-03-13T10:50:53.727Z,6.03
2023-03-13T10:53:25.460Z,6.23
2023-03-13T10:55:58.980Z,7.17
2023-03-13T10:58:35.440Z,7.47
2023-03-13T11:01:19.283Z,6.70
2023-03-13T11:03:48.869Z,6.33
2023-03-13T11:06:28.927Z,7.23
2023-03-13T11:09:06.486Z,6.17
2023-03-13T11:11:46.191Z,6.97
2023-03-13T11:14:18.596Z,5.90
2023-03-13T11:16:51.541Z,5.63
2023-03-13T11:19:43.777Z,6.33
2023-03-13T11:22:25.671Z,6.40
2023-03-13T11:25:04.365Z,6.30
2023-03-13T11:27:39.910Z,6.23
2023-03-13T11:30:22.764Z,6.40
2023-03-13T11:32:56.235Z,5.70
2023-03-13T11:35:38.342Z,5.57
2023-03-13T11:38:12.950Z,6.23
2023-03-13T11:40:51.429Z,6.00
2023-03-13T11:43:42.106Z,6.50
2023-03-13T11:46:31.914Z,5.67
2023-03-13T11:49:25.791Z,5.97
2023-03-13T11:52:03.978Z,5.90
2023-03-13T11:55:05.892Z,6.00
2023-03-13T11:57:41.137Z,5.40
2023-03-13T12:00:22.960Z,6.00
2023-03-13T12:02:57.379Z,5.47
2023-03-13T12:05:28.705Z,5.30
2023-03-13T12:08:03.725Z,5.83
2023-03-13T12:10:39.660Z,5.05
2023-03-13T12:13:13.621Z,5.65
2023-03-13T12:15:45.535Z,4.77
2023-03-13T12:18:21.682Z,4.88
2023-03-13T12:20:57.554Z,4.90
2023-03-13T12:23:31.223Z,5.67
2023-03-13T12:26:05.640Z,5.10
2023-03-13T12:28:46.714Z,5.63
2023-03-13T12:31:27.921Z,5.40
2023-03-13T12:34:07.894Z,4.73
2023-03-13T12:36:42.618Z,4.43
2023-03-13T12:39:23.899Z,5.03
2023-03-13T12:41:58.604Z,4.17
2023-03-13T12:44:27.187Z,4.97
2023-03-13T12:47:03.457Z,4.07
2023-03-13T12:50:15.253Z,5.13
2023-03-13T12:53:05.919Z,5.07
2023-03-13T12:56:06.762Z,4.90
2023-03-13T12:58:53.791Z,4.67
2023-03-13T13:01:31.537Z,5.00
2023-03-13T13:04:02.415Z,4.87
2023-03-13T13:06:53.539Z,4.97
2023-03-13T13:09:25.992Z,5.13
2023-03-13T13:11:57.604Z,5.50
2023-03-13T13:15:01.841Z,5.03
2023-03-13T13:18:06.855Z,5.10
2023-03-13T13:20:42.247Z,5.70
2023-03-13T13:23:34.891Z,6.30
2023-03-13T13:26:48.255Z,4.30
2023-03-13T13:29:59.150Z,4.37
2023-03-13T13:32:53.868Z,5.13
2023-03-13T13:35:29.305Z,5.23
2023-03-13T13:38:29.535Z,4.63
2023-03-13T13:41:03.936Z,5.90
2023-03-13T13:43:36.377Z,5.77
2023-03-13T13:46:19.930Z,5.20
2023-03-13T13:48:48.190Z,4.47
2023-03-13T13:51:34.745Z,5.63
2023-03-13T13:54:04.644Z,4.70
2023-03-13T13:56:47.052Z,5.43
2023-03-13T13:59:37.005Z,4.50
2023-03-13T14:02:21.784Z,4.43
2023-03-13T14:05:08.260Z,5.00
2023-03-13T14:07:49.304Z,4.53
2023-03-13T14:10:27.975Z,4.03
2023-03-13T14:12:59.661Z,4.00
2023-03-13T14:15:32.558Z,4.20
2023-03-13T14:18:09.946Z,3.97
2023-03-13T14:20:39.403Z,4.97
2023-03-13T14:23:11.369Z,4.50
2023-03-13T14:25:45.836Z,5.27
2023-03-13T14:28:21.637Z,4.97
2023-03-13T14:30:54.634Z,3.97
2023-03-13T14:33:26.865Z,4.47
2023-03-13T14:35:55.631Z,4.33
2023-03-13T14:38:25.390Z,4.33
2023-03-13T14:40:56.062Z,4.13
2023-03-13T14:43:32.413Z,3.87
2023-03-13T14:46:04.247Z,3.50
2023-03-13T14:48:36.758Z,4.40
2023-03-13T14:51:15.725Z,3.47
2023-03-13T14:53:56.527Z,3.83
2023-03-13T14:56:33.848Z,3.90
2023-03-13T14:59:15.560Z,3.67
2023-03-13T15:01:44.121Z,3.70
2023-03-13T15:04:12.402Z,3.83
2023-03-13T15:06:40.756Z,3.30
2023-03-13T15:09:16.960Z,3.87
2023-03-13T15:11:55.389Z,3.70
2023-03-13T15:14:42.463Z,2.97
2023-03-13T15:17:17.207Z,3.73
2023-03-13T15:19:50.242Z,3.53
2023-03-13T15:22:19.260Z,3.10
2023-03-13T15:25:03.341Z,3.80
2023-03-13T15:27:33.841Z,3.87
2023-03-13T15:30:03.604Z,4.67
2023-03-13T15:32:34.722Z,3.83
2023-03-13T15:35:03.439Z,4.87
2023-03-13T15:37:32.344Z,4.87
2023-03-13T15:40:00.578Z,4.50
2023-03-13T15:42:28.965Z,4.23
2023-03-13T15:44:57.208Z,4.40
2023-03-13T15:47:27.975Z,3.90
2023-03-13T15:49:56.181Z,4.70
2023-03-13T15:52:24.384Z,4.30
2023-03-13T15:54:53.145Z,4.40
2023-03-13T15:57:24.243Z,4.33
2023-03-13T15:59:53.277Z,4.37
2023-03-13T16:02:23.468Z,4.13
2023-03-13T16:04:53.324Z,4.00
2023-03-13T16:07:22.661Z,4.10
2023-03-13T16:09:51.140Z,4.07
2023-03-13T16:12:19.368Z,4.40
2023-03-13T16:14:47.594Z,4.53
2023-03-13T16:17:18.182Z,4.07
2023-03-13T16:19:48.035Z,4.10
2023-03-13T16:22:17.738Z,4.37
2023-03-13T16:24:45.960Z,4.60
2023-03-13T16:27:19.057Z,4.33
2023-03-13T16:29:47.918Z,4.27
2023-03-13T16:32:18.757Z,4.40
2023-03-13T16:34:47.045Z,4.63
2023-03-13T16:37:18.279Z,3.90
2023-03-13T16:39:47.304Z,4.20
2023-03-13T16:42:15.641Z,4.77
2023-03-13T16:44:43.898Z,4.40
2023-03-13T16:47:21.863Z,4.87
2023-03-13T16:49:50.524Z,4.40
2023-03-13T16:52:20.218Z,4.87
2023-03-13T16:54:48.724Z,4.47
2023-03-13T16:57:19.775Z,4.53
2023-03-13T16:59:48.029Z,4.70
2023-03-13T17:02:18.134Z,4.67
2023-03-13T17:04:47.490Z,5.27
2023-03-13T17:07:23.148Z,5.00
2023-03-13T17:09:52.294Z,5.90
2023-03-13T17:12:20.950Z,5.10
2023-03-13T17:14:49.424Z,4.97
2023-03-13T17:17:20.208Z,4.67
2023-03-13T17:19:48.986Z,5.20
2023-03-13T17:22:18.681Z,5.20
2023-03-13T17:24:49.174Z,4.70
2023-03-13T17:27:18.899Z,4.40
2023-03-13T17:29:47.229Z,4.63
2023-03-13T17:32:16.396Z,4.63
2023-03-13T17:34:44.670Z,4.80
2023-03-13T17:37:17.683Z,5.20
2023-03-13T17:39:47.803Z,5.10
2023-03-13T17:42:16.339Z,4.43
2023-03-13T17:44:44.603Z,4.47
2023-03-13T17:47:17.726Z,4.80
2023-03-13T17:49:46.353Z,4.97
2023-03-13T17:52:15.948Z,5.23
2023-03-13T17:54:44.697Z,4.80
2023-03-13T17:57:17.726Z,5.07
2023-03-13T17:59:46.700Z,4.90
2023-03-13T18:02:16.603Z,4.87
2023-03-13T18:04:45.042Z,5.07
2023-03-13T18:07:18.682Z,6.17
2023-03-13T18:09:47.875Z,5.43
2023-03-13T18:12:17.830Z,4.83
2023-03-13T18:14:46.155Z,4.87
2023-03-13T18:17:17.800Z,5.00
2023-03-13T18:19:46.667Z,5.20
2023-03-13T18:22:17.148Z,5.00
2023-03-13T18:24:45.420Z,5.00
2023-03-13T18:27:15.581Z,4.73
2023-03-13T18:29:45.820Z,4.87
2023-03-13T18:32:16.054Z,5.10
2023-03-13T18:34:44.670Z,5.17
2023-03-13T18:37:21.727Z,4.70
2023-03-13T18:39:51.276Z,4.63
2023-03-13T18:42:19.862Z,4.70
2023-03-13T18:44:49.557Z,4.70
2023-03-13T18:47:19.854Z,6.20
2023-03-13T18:49:48.827Z,5.10
2023-03-13T18:52:17.662Z,5.20
2023-03-13T18:54:46.095Z,5.20
2023-03-13T18:57:16.127Z,5.63
2023-03-13T18:59:44.916Z,6.17
2023-03-13T19:02:16.865Z,5.50
2023-03-13T19:04:47.030Z,5.87
2023-03-13T19:07:17.014Z,4.60
2023-03-13T19:09:46.970Z,5.63
2023-03-13T19:12:16.592Z,5.37
2023-03-13T19:14:44.876Z,5.20
2023-03-13T19:17:21.296Z,5.77
2023-03-13T19:19:49.458Z,5.75
2023-03-13T19:22:17.620Z,4.87
2023-03-13T19:24:45.798Z,5.43
2023-03-13T19:27:16.757Z,5.67
2023-03-13T19:29:45.803Z,5.63
2023-03-13T19:32:17.222Z,6.10
2023-03-13T19:34:45.705Z,6.43
2023-03-13T19:37:15.335Z,6.30
2023-03-13T19:39:43.814Z,6.05
2023-03-13T19:42:12.134Z,5.30
2023-03-13T19:44:41.481Z,5.97
2023-03-13T19:47:14.786Z,6.13
2023-03-13T19:49:45.506Z,5.13
2023-03-13T19:52:13.691Z,5.07
2023-03-13T19:54:41.862Z,5.80
2023-03-13T19:57:11.353Z,5.80
2023-03-13T19:59:40.165Z,5.90
2023-03-13T20:02:11.586Z,5.93
2023-03-13T20:04:41.102Z,5.82
2023-03-13T20:07:10.616Z,5.33
2023-03-13T20:09:38.726Z,5.40
2023-03-13T20:12:07.274Z,5.70
2023-03-13T20:14:35.539Z,5.87
2023-03-13T20:17:04.383Z,5.90
2023-03-13T20:19:32.604Z,6.00
2023-03-13T20:22:03.746Z,5.80
2023-03-13T20:24:34.358Z,6.77
2023-03-13T20:27:02.825Z,6.13
2023-03-13T20:29:30.981Z,5.75
2023-03-13T20:32:01.253Z,5.50
2023-03-13T20:34:29.658Z,5.60
2023-03-13T20:36:59.868Z,5.60
2023-03-13T20:39:28.774Z,5.45
2023-03-13T20:42:02.601Z,5.47
2023-03-13T20:44:31.064Z,5.97
2023-03-13T20:46:59.191Z,5.60
2023-03-13T20:49:27.491Z,5.33
2023-03-13T20:51:55.653Z,5.70
2023-03-13T20:54:23.760Z,6.00
2023-03-13T20:56:52.046Z,5.50
2023-03-13T20:59:21.604Z,6.13
2023-03-13T21:01:49.777Z,6.40
2023-03-13T21:04:17.980Z,5.47
2023-03-13T21:06:46.140Z,6.13
2023-03-13T21:09:14.616Z,5.20
2023-03-13T21:11:42.830Z,4.63
2023-03-13T21:14:11.006Z,6.07
2023-03-13T21:16:40.593Z,4.90
2023-03-13T21:19:08.785Z,5.13
2023-03-13T21:21:36.916Z,4.93
2023-03-13T21:24:05.394Z,5.90
2023-03-13T21:26:33.523Z,4.90
2023-03-13T21:29:01.759Z,4.38
2023-03-13T21:31:30.364Z,5.20
2023-03-13T21:33:59.939Z,5.25
2023-03-13T21:36:28.260Z,4.50
2023-03-13T21:38:56.478Z,4.77
2023-03-13T21:41:24.610Z,5.17
2023-03-13T21:43:52.951Z,4.20
2023-03-13T21:46:22.592Z,4.07
2023-03-13T21:48:51.091Z,4.47
2023-03-13T21:51:20.611Z,4.47
2023-03-13T21:53:48.722Z,4.73
2023-03-13T21:56:17.307Z,5.13
2023-03-13T21:58:46.389Z,4.80
2023-03-13T22:01:15.840Z,5.13
2023-03-13T22:03:44.367Z,5.40
2023-03-13T22:06:18.035Z,5.00
2023-03-13T22:08:49.026Z,4.33
2023-03-13T22:11:17.610Z,4.72
2023-03-13T22:13:45.988Z,4.33
2023-03-13T22:16:14.203Z,4.13
2023-03-13T22:18:43.229Z,4.77
2023-03-13T22:21:11.520Z,4.43
2023-03-13T22:23:39.695Z,4.65
2023-03-13T22:26:09.315Z,4.97
2023-03-13T22:28:37.444Z,5.00
2023-03-13T22:31:08.156Z,5.07
2023-03-13T22:33:36.708Z,4.60
2023-03-13T22:36:06.096Z,4.70
2023-03-13T22:38:38.760Z,5.20
2023-03-13T22:41:10.509Z,4.67
2023-03-13T22:43:38.646Z,5.17
2023-03-13T22:46:07.558Z,5.17
2023-03-13T22:48:37.168Z,5.57
2023-03-13T22:51:08.858Z,5.20
2023-03-13T22:53:39.505Z,5.38
2023-03-13T22:56:11.245Z,5.30
2023-03-13T22:58:39.506Z,5.55
2023-03-13T23:01:08.542Z,5.17
2023-03-13T23:03:36.752Z,5.90
2023-03-13T23:06:07.218Z,5.10
2023-03-13T23:08:35.649Z,5.13
2023-03-13T23:11:04.611Z,4.50
2023-03-13T23:13:34.358Z,5.27
2023-03-13T23:16:05.474Z,4.83
2023-03-13T23:18:33.669Z,5.10
2023-03-13T23:21:06.023Z,5.30
2023-03-13T23:23:34.811Z,4.65
2023-03-13T23:26:03.663Z,4.73
2023-03-13T23:28:34.138Z,4.63
2023-03-13T23:31:09.022Z,5.00
2023-03-13T23:33:37.132Z,4.80
2023-03-13T23:36:09.573Z,5.03
2023-03-13T23:38:37.804Z,4.87
2023-03-13T23:41:10.602Z,4.90
2023-03-13T23:43:40.499Z,5.47
2023-03-13T23:46:17.571Z,5.30
2023-03-13T23:48:45.742Z,5.27
2023-03-13T23:51:14.073Z,5.07
2023-03-13T23:53:44.064Z,4.73
2023-03-13T23:56:12.967Z,5.57
2023-03-13T23:58:43.022Z,5.47
